createdAt,value
2016-03-30T00:00:52.420Z,83.42
2016-03-30T00:01:52.407Z,83.42
2016-03-30T00:02:52.425Z,83.04
2016-03-30T00:03:52.412Z,83.52
2016-03-30T00:04:52.415Z,83.14
2016-03-30T00:05:52.402Z,83.1
2016-03-30T00:06:52.405Z,83.04
2016-03-30T00:07:52.408Z,83.14
2016-03-30T00:08:52.411Z,83.04
2016-03-30T00:09:52.413Z,83.04
2016-03-30T00:10:52.416Z,83.23
2016-03-30T00:11:52.419Z,82.57
2016-03-30T00:12:52.422Z,82.38
2016-03-30T00:13:52.424Z,82.38
2016-03-30T00:14:52.410Z,81.71
2016-03-30T00:15:52.414Z,81.43
2016-03-30T00:16:52.432Z,81.71
2016-03-30T00:17:52.419Z,81.33
2016-03-30T00:18:52.422Z,81.14
2016-03-30T00:19:52.425Z,80.86
2016-03-30T00:20:52.427Z,81.24
2016-03-30T00:21:52.413Z,81.24
2016-03-30T00:22:52.402Z,80.86
2016-03-30T00:23:52.435Z,80.47
2016-03-30T00:24:52.422Z,80.57
2016-03-30T00:25:52.409Z,80.38
2016-03-30T00:26:52.412Z,80.66
2016-03-30T00:27:52.415Z,80.29
2016-03-30T00:28:52.417Z,80.19
2016-03-30T00:29:52.420Z,80
2016-03-30T00:30:52.423Z,80
2016-03-30T00:31:52.409Z,80.1
2016-03-30T00:32:52.412Z,80
2016-03-30T00:33:52.430Z,80.1
2016-03-30T00:34:52.417Z,80.29
2016-03-30T00:35:52.436Z,79.43
2016-03-30T00:36:52.422Z,79.52
2016-03-30T00:37:52.426Z,79.52
2016-03-30T00:38:52.428Z,79.52
2016-03-30T00:39:52.415Z,79.52
2016-03-30T00:40:52.418Z,79.91
2016-03-30T00:41:52.436Z,79.81
2016-03-30T00:42:52.423Z,80
2016-03-30T00:43:52.425Z,80.19
2016-03-30T00:44:52.601Z,79.72
2016-03-30T00:45:52.416Z,79.52
2016-03-30T00:46:52.419Z,79.52
2016-03-30T00:47:52.421Z,79.62
2016-03-30T00:48:52.424Z,80
2016-03-30T00:49:52.427Z,80.29
2016-03-30T00:50:52.430Z,79.91
2016-03-30T00:51:52.417Z,79.52
2016-03-30T00:52:52.435Z,79.72
2016-03-30T00:53:52.421Z,79.52
2016-03-30T00:54:52.424Z,79.47
2016-03-30T00:55:52.427Z,79.24
2016-03-30T00:56:52.430Z,79.38
2016-03-30T00:57:52.417Z,79.33
2016-03-30T00:58:52.435Z,79.28
2016-03-30T00:59:52.469Z,79.72
2016-03-30T01:00:52.440Z,79.33
2016-03-30T01:01:52.429Z,79.33
2016-03-30T01:02:52.431Z,79.43
2016-03-30T01:03:52.449Z,79.24
2016-03-30T01:04:52.451Z,79.52
2016-03-30T01:05:52.439Z,79.43
2016-03-30T01:06:52.423Z,79.14
2016-03-30T01:07:52.415Z,79.19
2016-03-30T01:08:52.407Z,79.33
2016-03-30T01:09:52.399Z,79.14
2016-03-30T01:10:52.391Z,78.86
2016-03-30T01:11:52.416Z,79.43
2016-03-30T01:12:52.367Z,78.96
2016-03-30T01:13:52.365Z,79.05
2016-03-30T01:14:52.333Z,78.86
2016-03-30T01:15:52.362Z,78.57
2016-03-30T01:16:52.361Z,78.9
2016-03-30T01:17:52.362Z,78.52
2016-03-30T01:18:52.348Z,78.52
2016-03-30T01:19:52.350Z,78.8
2016-03-30T01:20:52.351Z,78.77
2016-03-30T01:21:52.352Z,78.71
2016-03-30T01:22:52.355Z,78.48
2016-03-30T01:23:52.357Z,78.9
2016-03-30T01:24:52.374Z,78.71
2016-03-30T01:25:52.361Z,78.8
2016-03-30T01:26:52.348Z,78.8
2016-03-30T01:27:52.351Z,78.71
2016-03-30T01:28:52.353Z,78.61
2016-03-30T01:29:52.497Z,78.61
2016-03-30T01:30:52.359Z,78.71
2016-03-30T01:31:52.345Z,78.52
2016-03-30T01:32:52.348Z,78.61
2016-03-30T01:33:52.367Z,78.52
2016-03-30T01:34:52.354Z,78.96
2016-03-30T01:35:52.356Z,79.24
2016-03-30T01:36:52.358Z,79.14
2016-03-30T01:37:52.361Z,79.19
2016-03-30T01:38:52.364Z,78.99
2016-03-30T01:39:52.367Z,79.14
2016-03-30T01:40:52.370Z,79.24
2016-03-30T01:41:52.357Z,79.19
2016-03-30T01:42:52.360Z,79.24
2016-03-30T01:43:52.206Z,79.43
2016-03-30T01:44:52.444Z,79.66
2016-03-30T01:45:52.352Z,79.62
2016-03-30T01:46:52.371Z,79.33
2016-03-30T01:47:52.357Z,79.05
2016-03-30T01:48:52.361Z,79.62
2016-03-30T01:49:52.363Z,79.91
2016-03-30T01:50:52.366Z,79.91
2016-03-30T01:51:52.369Z,79.62
2016-03-30T01:52:52.371Z,80
2016-03-30T01:53:52.373Z,79.91
2016-03-30T01:54:52.361Z,79.72
2016-03-30T01:55:52.364Z,80.29
2016-03-30T01:56:52.367Z,80.1
2016-03-30T01:57:52.370Z,80.29
2016-03-30T01:58:52.372Z,80.19
2016-03-30T01:59:52.405Z,80.19
2016-03-30T02:00:52.377Z,80.47
2016-03-30T02:01:52.380Z,80
2016-03-30T02:02:52.367Z,80.38
2016-03-30T02:03:52.369Z,80.66
2016-03-30T02:04:52.372Z,80.29
2016-03-30T02:05:52.359Z,80.47
2016-03-30T02:06:52.361Z,80.57
2016-03-30T02:07:52.442Z,80.95
2016-03-30T02:08:52.383Z,80.76
2016-03-30T02:09:52.370Z,80.86
2016-03-30T02:10:52.372Z,80.47
2016-03-30T02:11:52.375Z,80.86
2016-03-30T02:12:52.377Z,81.05
2016-03-30T02:13:52.366Z,81.05
2016-03-30T02:14:52.399Z,81.24
2016-03-30T02:15:52.370Z,81.14
2016-03-30T02:16:52.374Z,81.24
2016-03-30T02:17:52.376Z,81.33
2016-03-30T02:18:52.379Z,81.33
2016-03-30T02:19:52.382Z,80.95
2016-03-30T02:20:52.368Z,80.76
2016-03-30T02:21:52.371Z,81.14
2016-03-30T02:22:52.374Z,81.43
2016-03-30T02:23:52.376Z,81.62
2016-03-30T02:24:52.379Z,81.81
2016-03-30T02:25:52.382Z,81.71
2016-03-30T02:26:52.369Z,81.9
2016-03-30T02:27:52.371Z,81.62
2016-03-30T02:28:52.374Z,81.62
2016-03-30T02:29:52.393Z,81.81
2016-03-30T02:30:52.380Z,81.52
2016-03-30T02:31:52.382Z,81.52
2016-03-30T02:32:52.385Z,81.43
2016-03-30T02:33:52.372Z,81.52
2016-03-30T02:34:52.375Z,81.24
2016-03-30T02:35:52.378Z,81.33
2016-03-30T02:36:52.381Z,81.05
2016-03-30T02:37:52.383Z,81.33
2016-03-30T02:38:52.386Z,81.33
2016-03-30T02:39:52.372Z,81.52
2016-03-30T02:40:52.375Z,81.33
2016-03-30T02:41:52.378Z,81.48
2016-03-30T02:42:52.381Z,81.62
2016-03-30T02:43:52.383Z,82
2016-03-30T02:44:52.386Z,81.77
2016-03-30T02:45:52.389Z,81.96
2016-03-30T02:46:52.376Z,81.67
2016-03-30T02:47:52.379Z,81.96
2016-03-30T02:48:52.381Z,82.43
2016-03-30T02:49:52.385Z,82.24
2016-03-30T02:50:52.387Z,82.24
2016-03-30T02:51:52.390Z,82.81
2016-03-30T02:52:52.377Z,82.81
2016-03-30T02:53:52.379Z,82.62
2016-03-30T02:54:52.382Z,82.24
2016-03-30T02:55:52.385Z,82.15
2016-03-30T02:56:52.387Z,82.34
2016-03-30T02:57:52.391Z,81.96
2016-03-30T02:58:52.377Z,82.24
2016-03-30T02:59:52.379Z,82.43
2016-03-30T03:00:52.382Z,82.43
2016-03-30T03:01:52.385Z,82.81
2016-03-30T03:02:52.387Z,82.71
2016-03-30T03:03:52.390Z,82.62
2016-03-30T03:04:52.393Z,82.91
2016-03-30T03:05:52.396Z,82.62
2016-03-30T03:06:52.383Z,82.53
2016-03-30T03:07:52.386Z,82.81
2016-03-30T03:08:52.389Z,82.71
2016-03-30T03:09:52.391Z,82.43
2016-03-30T03:10:52.378Z,82.28
2016-03-30T03:11:52.397Z,82.34
2016-03-30T03:12:52.383Z,82.34
2016-03-30T03:13:52.386Z,82.28
2016-03-30T03:14:52.389Z,82.24
2016-03-30T03:15:52.392Z,82.15
2016-03-30T03:16:52.395Z,82.05
2016-03-30T03:17:52.398Z,82.05
2016-03-30T03:18:52.383Z,82.62
2016-03-30T03:19:52.403Z,82.71
2016-03-30T03:20:52.390Z,82.91
2016-03-30T03:21:52.392Z,82.62
2016-03-30T03:22:52.395Z,82.71
2016-03-30T03:23:52.398Z,83.19
2016-03-30T03:24:52.400Z,83.19
2016-03-30T03:25:52.403Z,82.81
2016-03-30T03:26:52.391Z,83.1
2016-03-30T03:27:52.393Z,83.39
2016-03-30T03:28:52.396Z,83.48
2016-03-30T03:29:52.399Z,83.48
2016-03-30T03:30:52.401Z,84.05
2016-03-30T03:31:52.403Z,83.86
2016-03-30T03:32:52.390Z,83.67
2016-03-30T03:33:52.393Z,83.48
2016-03-30T03:34:52.396Z,83.95
2016-03-30T03:35:52.383Z,83.95
2016-03-30T03:36:52.402Z,84.05
2016-03-30T03:37:52.389Z,83.67
2016-03-30T03:38:52.392Z,83.86
2016-03-30T03:39:52.395Z,83.76
2016-03-30T03:40:52.412Z,84.14
2016-03-30T03:41:52.400Z,83.76
2016-03-30T03:42:52.402Z,83.67
2016-03-30T03:43:52.405Z,83.76
2016-03-30T03:44:52.392Z,83.86
2016-03-30T03:45:52.394Z,83.86
2016-03-30T03:46:52.398Z,83.86
2016-03-30T03:47:52.400Z,83.86
2016-03-30T03:48:52.403Z,84.05
2016-03-30T03:49:52.406Z,84.24
2016-03-30T03:50:52.392Z,84.14
2016-03-30T03:51:52.395Z,84.62
2016-03-30T03:52:52.397Z,84.62
2016-03-30T03:53:52.400Z,84.62
2016-03-30T03:54:52.403Z,84.67
2016-03-30T03:55:52.421Z,85.05
2016-03-30T03:56:52.408Z,85.05
2016-03-30T03:57:52.410Z,85.05
2016-03-30T03:58:52.413Z,85.24
2016-03-30T03:59:52.401Z,85.43
2016-03-30T04:00:52.404Z,85.53
2016-03-30T04:01:52.406Z,85.72
2016-03-30T04:02:52.409Z,85.62
2016-03-30T04:03:52.393Z,85.53
2016-03-30T04:04:52.396Z,85.53
2016-03-30T04:05:52.417Z,85.43
2016-03-30T04:06:52.401Z,85.72
2016-03-30T04:07:52.404Z,85.43
2016-03-30T04:08:52.407Z,86.29
2016-03-30T04:09:52.409Z,85.91
2016-03-30T04:10:52.396Z,85.81
2016-03-30T04:11:52.399Z,85.62
2016-03-30T04:12:52.401Z,85.72
2016-03-30T04:13:52.420Z,85.62
2016-03-30T04:14:52.406Z,85.91
2016-03-30T04:15:52.409Z,85.53
2016-03-30T04:16:52.412Z,86.47
2016-03-30T04:17:52.414Z,85.72
2016-03-30T04:18:52.403Z,85.72
2016-03-30T04:19:52.405Z,85.72
2016-03-30T04:20:52.408Z,85.53
2016-03-30T04:21:52.411Z,85.91
2016-03-30T04:22:52.414Z,85.91
2016-03-30T04:23:52.416Z,85.62
2016-03-30T04:24:52.419Z,85.43
2016-03-30T04:25:52.405Z,85.72
2016-03-30T04:26:52.408Z,86.47
2016-03-30T04:27:52.411Z,86
2016-03-30T04:28:52.414Z,85.72
2016-03-30T04:29:52.417Z,85.72
2016-03-30T04:30:52.404Z,85.81
2016-03-30T04:31:52.407Z,85.62
2016-03-30T04:32:52.410Z,85.72
2016-03-30T04:33:52.412Z,85.76
2016-03-30T04:34:52.415Z,85.66
2016-03-30T04:35:52.417Z,85.57
2016-03-30T04:36:52.420Z,85.86
2016-03-30T04:37:52.423Z,85.76
2016-03-30T04:38:52.409Z,85.86
2016-03-30T04:39:52.412Z,85.86
2016-03-30T04:40:52.414Z,85.95
2016-03-30T04:41:52.417Z,86.14
2016-03-30T04:42:52.404Z,85.66
2016-03-30T04:43:52.406Z,85.38
2016-03-30T04:44:52.270Z,85.66
2016-03-30T04:45:52.412Z,85.47
2016-03-30T04:46:52.415Z,85.76
2016-03-30T04:47:52.418Z,85.86
2016-03-30T04:48:52.421Z,85.47
2016-03-30T04:49:52.408Z,85.28
2016-03-30T04:50:52.411Z,85
2016-03-30T04:51:52.413Z,85.1
2016-03-30T04:52:52.416Z,85
2016-03-30T04:53:52.419Z,85.1
2016-03-30T04:54:52.421Z,85
2016-03-30T04:55:52.424Z,85
2016-03-30T04:56:52.410Z,85.47
2016-03-30T04:57:52.429Z,84.62
2016-03-30T04:58:52.416Z,84.62
2016-03-30T04:59:52.418Z,84.81
2016-03-30T05:00:52.422Z,84.62
2016-03-30T05:01:52.408Z,84.72
2016-03-30T05:02:52.411Z,84.43
2016-03-30T05:03:52.414Z,84.52
2016-03-30T05:04:52.416Z,84.81
2016-03-30T05:05:52.419Z,84.33
2016-03-30T05:06:52.421Z,84.52
2016-03-30T05:07:52.424Z,84.33
2016-03-30T05:08:52.427Z,84.33
2016-03-30T05:09:52.415Z,84.24
2016-03-30T05:10:52.418Z,84.14
2016-03-30T05:11:52.420Z,84.24
2016-03-30T05:12:52.423Z,84.33
2016-03-30T05:13:52.426Z,84.24
2016-03-30T05:14:52.413Z,84.14
2016-03-30T05:15:52.415Z,84.24
2016-03-30T05:16:52.418Z,84.24
2016-03-30T05:17:52.420Z,84.24
2016-03-30T05:18:52.423Z,84.14
2016-03-30T05:19:52.425Z,84.24
2016-03-30T05:20:52.413Z,84.24
2016-03-30T05:21:52.416Z,84.09
2016-03-30T05:22:52.433Z,84.47
2016-03-30T05:23:52.421Z,84.52
2016-03-30T05:24:52.424Z,84.43
2016-03-30T05:25:52.427Z,84.56
2016-03-30T05:26:52.414Z,84.47
2016-03-30T05:27:52.416Z,84.56
2016-03-30T05:28:52.419Z,84.56
2016-03-30T05:29:52.422Z,84.28
2016-03-30T05:30:52.424Z,84.28
2016-03-30T05:31:52.427Z,83.9
2016-03-30T05:32:52.429Z,84
2016-03-30T05:33:52.416Z,83.9
2016-03-30T05:34:52.419Z,84.19
2016-03-30T05:35:52.437Z,83.9
2016-03-30T05:36:52.424Z,83.9
2016-03-30T05:37:52.426Z,84.09
2016-03-30T05:38:52.429Z,84.09
2016-03-30T05:39:52.432Z,83.9
2016-03-30T05:40:52.435Z,83.71
2016-03-30T05:41:52.423Z,83.9
2016-03-30T05:42:52.426Z,84
2016-03-30T05:43:52.428Z,83.81
2016-03-30T05:44:52.431Z,83.42
2016-03-30T05:45:52.418Z,83.23
2016-03-30T05:46:52.420Z,83.62
2016-03-30T05:47:52.423Z,83.23
2016-03-30T05:48:52.441Z,83.42
2016-03-30T05:49:52.428Z,83.14
2016-03-30T05:50:52.478Z,83.04
2016-03-30T05:51:52.433Z,82.95
2016-03-30T05:52:52.421Z,82.95
2016-03-30T05:53:52.423Z,83.33
2016-03-30T05:54:52.426Z,83.14
2016-03-30T05:55:52.429Z,83.23
2016-03-30T05:56:52.431Z,83.23
2016-03-30T05:57:52.434Z,82.57
2016-03-30T05:58:52.436Z,82.76
2016-03-30T05:59:52.424Z,82.9
2016-03-30T06:00:52.442Z,82.7
2016-03-30T06:01:52.430Z,82.9
2016-03-30T06:02:52.432Z,82.61
2016-03-30T06:03:52.435Z,82.04
2016-03-30T06:04:52.437Z,82.61
2016-03-30T06:05:52.440Z,82.04
2016-03-30T06:06:52.427Z,81.76
2016-03-30T06:07:52.430Z,81.85
2016-03-30T06:08:52.433Z,82.14
2016-03-30T06:09:52.451Z,81.76
2016-03-30T06:10:52.438Z,81.28
2016-03-30T06:11:52.441Z,81.6
2016-03-30T06:12:52.428Z,81.23
2016-03-30T06:13:52.446Z,81.32
2016-03-30T06:14:52.433Z,81.13
2016-03-30T06:15:52.436Z,80.55
2016-03-30T06:16:52.439Z,80.27
2016-03-30T06:17:52.441Z,80.36
2016-03-30T06:18:52.428Z,79.99
2016-03-30T06:19:52.446Z,80.27
2016-03-30T06:20:52.433Z,79.41
2016-03-30T06:21:52.436Z,79.7
2016-03-30T06:22:52.438Z,79.99
2016-03-30T06:23:52.441Z,79.6
2016-03-30T06:24:52.444Z,80.22
2016-03-30T06:25:52.447Z,79.36
2016-03-30T06:26:52.450Z,79.27
2016-03-30T06:27:52.437Z,79.07
2016-03-30T06:28:52.439Z,79.46
2016-03-30T06:29:52.442Z,78.69
2016-03-30T06:30:52.444Z,78.44
2016-03-30T06:31:52.447Z,77.78
2016-03-30T06:32:52.450Z,77.3
2016-03-30T06:33:52.452Z,76.73
2016-03-30T06:34:52.441Z,76.73
2016-03-30T06:35:52.443Z,76.1
2016-03-30T06:36:52.446Z,75.91
2016-03-30T06:37:52.449Z,75.43
2016-03-30T06:38:52.451Z,74.86
2016-03-30T06:39:52.454Z,74.96
2016-03-30T06:40:52.456Z,74.48
2016-03-30T06:41:52.459Z,73.81
2016-03-30T06:42:52.446Z,73.14
2016-03-30T06:43:52.448Z,73.14
2016-03-30T06:44:52.451Z,72.76
2016-03-30T06:45:52.453Z,72.48
2016-03-30T06:46:52.457Z,72.32
2016-03-30T06:47:52.459Z,72.13
2016-03-30T06:48:52.446Z,71.75
2016-03-30T06:49:52.449Z,71.37
2016-03-30T06:50:52.451Z,71.08
2016-03-30T06:51:52.470Z,70.79
2016-03-30T06:52:52.456Z,70.22
2016-03-30T06:53:52.459Z,70.03
2016-03-30T06:54:52.462Z,70.03
2016-03-30T06:55:52.464Z,69.84
2016-03-30T06:56:52.452Z,69.46
2016-03-30T06:57:52.455Z,68.98
2016-03-30T06:58:52.301Z,68.88
2016-03-30T06:59:52.461Z,68.44
2016-03-30T07:00:52.463Z,68.16
2016-03-30T07:01:52.466Z,67.49
2016-03-30T07:02:52.469Z,66.82
2016-03-30T07:03:52.471Z,66.38
2016-03-30T07:04:52.474Z,65.52
2016-03-30T07:05:52.477Z,65.14
2016-03-30T07:06:52.479Z,64.4
2016-03-30T07:07:52.483Z,63.45
2016-03-30T07:08:52.469Z,62.97
2016-03-30T07:09:52.472Z,62.68
2016-03-30T07:10:52.475Z,61.92
2016-03-30T07:11:52.493Z,61.72
2016-03-30T07:12:52.465Z,61.16
2016-03-30T07:13:52.483Z,60.9
2016-03-30T07:14:52.486Z,60.99
2016-03-30T07:15:52.474Z,60.68
2016-03-30T07:16:52.476Z,60.23
2016-03-30T07:17:52.479Z,59.84
2016-03-30T07:18:52.482Z,60.13
2016-03-30T07:19:52.484Z,59.37
2016-03-30T07:20:52.487Z,59.27
2016-03-30T07:21:52.489Z,58.98
2016-03-30T07:22:52.492Z,58.89
2016-03-30T07:23:52.479Z,58.12
2016-03-30T07:24:52.481Z,58.73
2016-03-30T07:25:52.484Z,58.06
2016-03-30T07:26:52.487Z,58.54
2016-03-30T07:27:52.490Z,57.77
2016-03-30T07:28:52.493Z,58.06
2016-03-30T07:29:52.495Z,57.77
2016-03-30T07:30:52.498Z,57.48
2016-03-30T07:31:52.501Z,57.29
2016-03-30T07:32:52.503Z,57.29
2016-03-30T07:33:52.506Z,57.36
2016-03-30T07:34:52.508Z,57.17
2016-03-30T07:35:52.511Z,57.26
2016-03-30T07:36:52.498Z,57.55
2016-03-30T07:37:52.517Z,57.1
2016-03-30T07:38:52.504Z,57.29
2016-03-30T07:39:52.506Z,56.91
2016-03-30T07:40:52.509Z,56.91
2016-03-30T07:41:52.511Z,55.98
2016-03-30T07:42:52.514Z,56.08
2016-03-30T07:43:52.517Z,55.88
2016-03-30T07:44:52.520Z,55.79
2016-03-30T07:45:52.523Z,55.51
2016-03-30T07:46:52.525Z,55.31
2016-03-30T07:47:52.528Z,54.93
2016-03-30T07:48:52.515Z,54.45
2016-03-30T07:49:52.533Z,54.64
2016-03-30T07:50:52.864Z,54.55
2016-03-30T07:51:52.539Z,54.26
2016-03-30T07:52:52.526Z,54.07
2016-03-30T07:53:52.528Z,54.36
2016-03-30T07:54:52.546Z,53.71
2016-03-30T07:55:52.534Z,54.1
2016-03-30T07:56:52.537Z,53.81
2016-03-30T07:57:52.539Z,53.23
2016-03-30T07:58:52.542Z,52.69
2016-03-30T07:59:52.545Z,51.73
2016-03-30T08:00:52.548Z,51.44
2016-03-30T08:01:52.550Z,51.06
2016-03-30T08:02:52.553Z,50.96
2016-03-30T08:03:52.556Z,50.96
2016-03-30T08:04:52.515Z,50.96
2016-03-30T08:05:52.544Z,50.38
2016-03-30T08:06:52.389Z,50.41
2016-03-30T08:07:52.554Z,50.32
2016-03-30T08:08:52.648Z,50.32
2016-03-30T08:09:52.553Z,50.22
2016-03-30T08:10:52.556Z,49.93
2016-03-30T08:11:52.559Z,49.65
2016-03-30T08:12:52.562Z,49.45
2016-03-30T08:13:52.549Z,49.19
2016-03-30T08:14:52.551Z,48.33
2016-03-30T08:15:52.429Z,48.23
2016-03-30T08:16:52.556Z,48.13
2016-03-30T08:17:52.560Z,47.75
2016-03-30T08:18:52.578Z,47.56
2016-03-30T08:19:52.565Z,47.2
2016-03-30T08:20:52.411Z,46.72
2016-03-30T08:21:52.570Z,46.72
2016-03-30T08:22:52.573Z,46.53
2016-03-30T08:23:52.575Z,46.34
2016-03-30T08:24:52.579Z,46.05
2016-03-30T08:25:52.581Z,46.24
2016-03-30T08:26:52.584Z,46.05
2016-03-30T08:27:52.586Z,46.34
2016-03-30T08:28:52.589Z,45.95
2016-03-30T08:29:52.592Z,45.76
2016-03-30T08:30:52.611Z,45.68
2016-03-30T08:31:52.598Z,45.4
2016-03-30T08:32:52.617Z,44.92
2016-03-30T08:33:52.603Z,44.92
2016-03-30T08:34:52.606Z,44.92
2016-03-30T08:35:52.615Z,44.82
2016-03-30T08:36:52.617Z,44.92
2016-03-30T08:37:52.620Z,45.01
2016-03-30T08:38:52.623Z,44.82
2016-03-30T08:39:52.625Z,44.63
2016-03-30T08:40:52.628Z,44.63
2016-03-30T08:41:52.630Z,44.8
2016-03-30T08:42:52.649Z,44.9
2016-03-30T08:43:52.628Z,44.61
2016-03-30T08:44:52.646Z,45
2016-03-30T08:45:52.633Z,45.54
2016-03-30T08:46:52.636Z,46.22
2016-03-30T08:47:52.639Z,46.7
2016-03-30T08:48:52.642Z,47.06
2016-03-30T08:49:52.644Z,47.25
2016-03-30T08:50:52.647Z,47.63
2016-03-30T08:51:52.696Z,48.21
2016-03-30T08:52:52.653Z,48.09
2016-03-30T08:53:52.655Z,48.85
2016-03-30T08:54:52.673Z,49.14
2016-03-30T08:55:52.661Z,49.43
2016-03-30T08:56:52.664Z,49.71
2016-03-30T08:57:52.666Z,50.38
2016-03-30T08:58:52.668Z,50.56
2016-03-30T08:59:52.672Z,50.17
2016-03-30T09:00:52.674Z,51.13
2016-03-30T09:01:52.677Z,51.13
2016-03-30T09:02:52.679Z,51.42
2016-03-30T09:03:52.682Z,51.97
2016-03-30T09:04:52.685Z,51.7
2016-03-30T09:05:52.688Z,51.79
2016-03-30T09:06:52.690Z,51.7
2016-03-30T09:07:52.693Z,51.61
2016-03-30T09:08:52.695Z,51.42
2016-03-30T09:09:52.699Z,51.22
2016-03-30T09:10:52.701Z,51.42
2016-03-30T09:11:52.704Z,51.79
2016-03-30T09:12:52.707Z,51.92
2016-03-30T09:13:52.694Z,51.92
2016-03-30T09:14:52.712Z,51.73
2016-03-30T09:15:52.715Z,51.92
2016-03-30T09:16:52.718Z,51.73
2016-03-30T09:17:52.720Z,52.69
2016-03-30T09:18:52.723Z,52.18
2016-03-30T09:19:52.709Z,52.69
2016-03-30T09:20:52.729Z,52.47
2016-03-30T09:21:52.715Z,52.95
2016-03-30T09:22:52.718Z,53.14
2016-03-30T09:23:52.736Z,53.42
2016-03-30T09:24:52.722Z,53.42
2016-03-30T09:25:52.725Z,53.71
2016-03-30T09:26:52.745Z,54.1
2016-03-30T09:27:52.747Z,53.81
2016-03-30T09:28:52.733Z,54.57
2016-03-30T09:29:52.736Z,54.19
2016-03-30T09:30:52.739Z,54.45
2016-03-30T09:31:52.742Z,55.02
2016-03-30T09:32:52.744Z,54.96
2016-03-30T09:33:52.747Z,55.31
2016-03-30T09:34:52.750Z,55.53
2016-03-30T09:35:52.753Z,55.44
2016-03-30T09:36:52.755Z,55.34
2016-03-30T09:37:52.758Z,55.15
2016-03-30T09:38:52.760Z,55.44
2016-03-30T09:39:52.763Z,54.96
2016-03-30T09:40:52.766Z,55.82
2016-03-30T09:41:52.769Z,55.51
2016-03-30T09:42:52.755Z,55.24
2016-03-30T09:43:52.774Z,55.63
2016-03-30T09:44:52.777Z,55.73
2016-03-30T09:45:52.795Z,55.91
2016-03-30T09:46:52.766Z,55.53
2016-03-30T09:47:52.785Z,55.73
2016-03-30T09:48:52.771Z,55.34
2016-03-30T09:49:52.774Z,55.24
2016-03-30T09:50:52.777Z,55.24
2016-03-30T09:51:52.780Z,54.86
2016-03-30T09:52:52.782Z,55.05
2016-03-30T09:53:52.785Z,54.86
2016-03-30T09:54:52.788Z,54.89
2016-03-30T09:55:52.806Z,55.05
2016-03-30T09:56:52.809Z,55.05
2016-03-30T09:57:52.796Z,54.86
2016-03-30T09:58:52.798Z,55.34
2016-03-30T09:59:52.801Z,55.34
2016-03-30T10:00:52.975Z,55.05
2016-03-30T10:01:52.823Z,55.34
2016-03-30T10:02:52.809Z,55.44
2016-03-30T10:03:52.812Z,55.44
2016-03-30T10:04:52.814Z,55.34
2016-03-30T10:05:52.817Z,55.05
2016-03-30T10:06:52.805Z,55.05
2016-03-30T10:07:52.823Z,54.57
2016-03-30T10:08:52.826Z,54.57
2016-03-30T10:09:52.828Z,53.81
2016-03-30T10:10:52.830Z,54.1
2016-03-30T10:11:52.818Z,53.71
2016-03-30T10:12:52.818Z,53.55
2016-03-30T10:13:52.811Z,53.52
2016-03-30T10:14:52.803Z,53.23
2016-03-30T10:15:52.858Z,53.33
2016-03-30T10:16:52.787Z,53.42
2016-03-30T10:17:52.782Z,53.33
2016-03-30T10:18:52.780Z,53.23
2016-03-30T10:19:52.795Z,53.42
2016-03-30T10:20:52.793Z,53.62
2016-03-30T10:21:52.777Z,53.36
2016-03-30T10:22:52.791Z,53.36
2016-03-30T10:23:52.793Z,53.55
2016-03-30T10:24:52.794Z,53.45
2016-03-30T10:25:52.780Z,53.16
2016-03-30T10:26:52.781Z,52.69
2016-03-30T10:27:52.783Z,52.3
2016-03-30T10:28:52.785Z,52.5
2016-03-30T10:29:52.802Z,51.92
2016-03-30T10:30:52.804Z,51.85
2016-03-30T10:31:52.792Z,51.75
2016-03-30T10:32:52.794Z,51.56
2016-03-30T10:33:52.797Z,51.28
2016-03-30T10:34:52.799Z,51.65
2016-03-30T10:35:52.803Z,50.89
2016-03-30T10:36:52.805Z,50.7
2016-03-30T10:37:52.823Z,50.53
2016-03-30T10:38:52.810Z,50.34
2016-03-30T10:39:52.797Z,50.63
2016-03-30T10:40:52.799Z,50.82
2016-03-30T10:41:52.803Z,51.01
2016-03-30T10:42:52.805Z,50.63
2016-03-30T10:43:52.808Z,50.73
2016-03-30T10:44:52.811Z,50.63
2016-03-30T10:45:52.938Z,50.43
2016-03-30T10:46:52.815Z,50.24
2016-03-30T10:47:52.818Z,49.41
2016-03-30T10:48:52.821Z,49.31
2016-03-30T10:49:52.824Z,48.16
2016-03-30T10:50:52.827Z,47.77
2016-03-30T10:51:52.829Z,47.2
2016-03-30T10:52:52.832Z,46.91
2016-03-30T10:53:52.835Z,46.34
2016-03-30T10:54:52.837Z,46.24
2016-03-30T10:55:52.840Z,45.76
2016-03-30T10:56:52.842Z,45.09
2016-03-30T10:57:52.845Z,44.51
2016-03-30T10:58:52.848Z,44.61
2016-03-30T10:59:52.851Z,44.06
2016-03-30T11:00:52.853Z,43.77
2016-03-30T11:01:52.856Z,43.38
2016-03-30T11:02:52.859Z,43.67
2016-03-30T11:03:52.861Z,43.48
2016-03-30T11:04:52.865Z,43.38
2016-03-30T11:05:52.851Z,42.61
2016-03-30T11:06:52.870Z,42.44
2016-03-30T11:07:52.872Z,42.54
2016-03-30T11:08:52.859Z,42.06
2016-03-30T11:09:52.861Z,41.1
2016-03-30T11:10:52.880Z,41.02
2016-03-30T11:11:52.867Z,40.73
2016-03-30T11:12:52.870Z,40.83
2016-03-30T11:13:52.888Z,40.56
2016-03-30T11:14:52.875Z,40.08
2016-03-30T11:15:52.893Z,39.61
2016-03-30T11:16:52.897Z,39.7
2016-03-30T11:17:52.883Z,39.51
2016-03-30T11:18:52.886Z,39.31
2016-03-30T11:19:52.904Z,39.41
2016-03-30T11:20:52.907Z,39.61
2016-03-30T11:21:52.894Z,39.7
2016-03-30T11:22:52.913Z,39.61
2016-03-30T11:23:52.899Z,39.14
2016-03-30T11:24:52.902Z,39.24
2016-03-30T11:25:52.921Z,38.37
2016-03-30T11:26:52.923Z,38.1
2016-03-30T11:27:52.942Z,37.81
2016-03-30T11:28:52.913Z,36.97
2016-03-30T11:29:52.931Z,36.19
2016-03-30T11:30:52.934Z,35.62
2016-03-30T11:31:52.921Z,34.29
2016-03-30T11:32:52.940Z,34.19
2016-03-30T11:33:52.942Z,33.71
2016-03-30T11:34:52.929Z,33.81
2016-03-30T11:35:52.931Z,33.13
2016-03-30T11:36:52.950Z,33.42
2016-03-30T11:37:52.937Z,33.91
2016-03-30T11:38:52.956Z,33.81
2016-03-30T11:39:52.959Z,34.17
2016-03-30T11:40:52.961Z,34.94
2016-03-30T11:41:52.964Z,34.94
2016-03-30T11:42:52.966Z,34.66
2016-03-30T11:43:52.969Z,35.04
2016-03-30T11:44:52.972Z,34.94
2016-03-30T11:45:52.975Z,34.83
2016-03-30T11:46:52.977Z,34.35
2016-03-30T11:47:52.979Z,33.98
2016-03-30T11:48:52.982Z,33.98
2016-03-30T11:49:52.985Z,34.06
2016-03-30T11:50:52.988Z,33.69
2016-03-30T11:51:52.990Z,33.51
2016-03-30T11:52:52.993Z,32.84
2016-03-30T11:53:52.996Z,32.76
2016-03-30T11:54:52.999Z,32.76
2016-03-30T11:55:53.002Z,32.28
2016-03-30T11:56:53.020Z,31.9
2016-03-30T11:57:53.006Z,31.8
2016-03-30T11:58:53.010Z,31.62
2016-03-30T11:59:53.012Z,31.24
2016-03-30T12:00:53.015Z,31.14
2016-03-30T12:01:53.017Z,32.01
2016-03-30T12:02:53.020Z,31.62
2016-03-30T12:03:53.023Z,31.62
2016-03-30T12:04:53.026Z,31.43
2016-03-30T12:05:53.028Z,31.43
2016-03-30T12:06:53.030Z,31.81
2016-03-30T12:07:53.049Z,31.7
2016-03-30T12:08:53.053Z,32.47
2016-03-30T12:09:53.043Z,32.47
2016-03-30T12:10:53.062Z,32.47
2016-03-30T12:11:53.048Z,32.38
2016-03-30T12:12:53.067Z,32.86
2016-03-30T12:13:53.069Z,32.67
2016-03-30T12:14:53.057Z,32.57
2016-03-30T12:15:53.075Z,32.67
2016-03-30T12:16:53.077Z,32.95
2016-03-30T12:17:53.064Z,32.86
2016-03-30T12:18:53.084Z,32.38
2016-03-30T12:19:53.086Z,32.76
2016-03-30T12:20:53.089Z,32.67
2016-03-30T12:21:53.091Z,32.67
2016-03-30T12:22:53.078Z,32.95
2016-03-30T12:23:53.112Z,33.05
2016-03-30T12:24:53.100Z,33.15
2016-03-30T12:25:53.102Z,32.76
2016-03-30T12:26:53.104Z,32.68
2016-03-30T12:27:53.107Z,32.49
2016-03-30T12:28:53.110Z,31.54
2016-03-30T12:29:53.113Z,32.03
2016-03-30T12:30:53.116Z,31.73
2016-03-30T12:31:53.133Z,31.06
2016-03-30T12:32:53.121Z,30.79
2016-03-30T12:33:53.155Z,30.69
2016-03-30T12:34:53.126Z,30.79
2016-03-30T12:35:53.129Z,30.59
2016-03-30T12:36:53.131Z,30.77
2016-03-30T12:37:53.135Z,31.15
2016-03-30T12:38:53.137Z,31.33
2016-03-30T12:39:52.983Z,31.91
2016-03-30T12:40:53.142Z,32.01
2016-03-30T12:41:53.145Z,31.8
2016-03-30T12:42:53.148Z,32.38
2016-03-30T12:43:53.150Z,32.76
2016-03-30T12:44:53.153Z,32.95
2016-03-30T12:45:53.155Z,32.95
2016-03-30T12:46:53.189Z,32.95
2016-03-30T12:47:53.161Z,32.67
2016-03-30T12:48:53.179Z,32.56
2016-03-30T12:49:53.182Z,32.67
2016-03-30T12:50:53.184Z,32.67
2016-03-30T12:51:53.187Z,32.95
2016-03-30T12:52:53.190Z,32.84
2016-03-30T12:53:53.192Z,33.13
2016-03-30T12:54:53.195Z,33.51
2016-03-30T12:55:53.198Z,33.81